sensor_id;sensor_type;location;lat;lon;timestamp;P1;durP1;ratioP1;P2;durP2;ratioP2
5955;SDS011;3004;48.080;11.600;2023-07-16T00:02:14;68.50;;;2.63;;
5955;SDS011;3004;48.080;11.600;2023-07-16T00:04:41;70.80;;;3.17;;
5955;SDS011;3004;48.080;11.600;2023-07-16T00:07:08;68.60;;;2.83;;
5955;SDS011;3004;48.080;11.600;2023-07-16T00:09:38;68.67;;;3.07;;
5955;SDS011;3004;48.080;11.600;2023-07-16T00:12:07;68.90;;;3.17;;
5955;SDS011;3004;48.080;11.600;2023-07-16T00:14:36;68.60;;;2.60;;
5955;SDS011;3004;48.080;11.600;2023-07-16T00:17:03;69.70;;;2.80;;
5955;SDS011;3004;48.080;11.600;2023-07-16T00:19:30;69.40;;;2.93;;
5955;SDS011;3004;48.080;11.600;2023-07-16T00:21:57;70.17;;;3.60;;
5955;SDS011;3004;48.080;11.600;2023-07-16T00:24:24;69.90;;;3.00;;
5955;SDS011;3004;48.080;11.600;2023-07-16T00:26:52;69.40;;;2.60;;
5955;SDS011;3004;48.080;11.600;2023-07-16T00:29:23;69.77;;;2.70;;
5955;SDS011;3004;48.080;11.600;2023-07-16T00:58:20;70.83;;;3.07;;
5955;SDS011;3004;48.080;11.600;2023-07-16T01:00:51;71.30;;;2.77;;
5955;SDS011;3004;48.080;11.600;2023-07-16T01:03:20;72.17;;;4.23;;
5955;SDS011;3004;48.080;11.600;2023-07-16T01:08:41;70.97;;;3.10;;
5955;SDS011;3004;48.080;11.600;2023-07-16T01:11:15;72.23;;;3.40;;
5955;SDS011;3004;48.080;11.600;2023-07-16T01:13:54;70.97;;;3.27;;
5955;SDS011;3004;48.080;11.600;2023-07-16T01:16:25;71.77;;;3.83;;
5955;SDS011;3004;48.080;11.600;2023-07-16T01:18:56;71.43;;;3.60;;
5955;SDS011;3004;48.080;11.600;2023-07-16T01:21:31;70.87;;;3.00;;
5955;SDS011;3004;48.080;11.600;2023-07-16T01:30:10;71.57;;;2.90;;
5955;SDS011;3004;48.080;11.600;2023-07-16T01:32:41;71.40;;;3.30;;
5955;SDS011;3004;48.080;11.600;2023-07-16T01:41:18;71.77;;;3.20;;
5955;SDS011;3004;48.080;11.600;2023-07-16T01:43:46;71.57;;;2.90;;
5955;SDS011;3004;48.080;11.600;2023-07-16T01:47:09;72.07;;;3.30;;
5955;SDS011;3004;48.080;11.600;2023-07-16T01:50:03;80.10;;;3.63;;
5955;SDS011;3004;48.080;11.600;2023-07-16T01:52:31;75.80;;;3.73;;
5955;SDS011;3004;48.080;11.600;2023-07-16T01:54:58;72.57;;;3.57;;
5955;SDS011;3004;48.080;11.600;2023-07-16T01:57:44;72.30;;;3.20;;
5955;SDS011;3004;48.080;11.600;2023-07-16T02:00:15;76.17;;;3.37;;
5955;SDS011;3004;48.080;11.600;2023-07-16T02:02:52;73.17;;;3.73;;
5955;SDS011;3004;48.080;11.600;2023-07-16T02:35:50;76.30;;;5.37;;
5955;SDS011;3004;48.080;11.600;2023-07-16T02:38:22;74.57;;;3.77;;
5955;SDS011;3004;48.080;11.600;2023-07-16T02:40:57;74.60;;;4.07;;
5955;SDS011;3004;48.080;11.600;2023-07-16T03:13:30;74.40;;;3.50;;
5955;SDS011;3004;48.080;11.600;2023-07-16T03:22:47;74.37;;;4.03;;
5955;SDS011;3004;48.080;11.600;2023-07-16T03:25:20;73.77;;;3.73;;
5955;SDS011;3004;48.080;11.600;2023-07-16T03:31:33;74.27;;;3.40;;
5955;SDS011;3004;48.080;11.600;2023-07-16T03:34:06;73.07;;;3.23;;
5955;SDS011;3004;48.080;11.600;2023-07-16T03:36:33;74.13;;;3.50;;
5955;SDS011;3004;48.080;11.600;2023-07-16T03:39:14;73.57;;;3.20;;
5955;SDS011;3004;48.080;11.600;2023-07-16T03:45:18;76.60;;;4.90;;
5955;SDS011;3004;48.080;11.600;2023-07-16T03:51:34;72.20;;;3.07;;
5955;SDS011;3004;48.080;11.600;2023-07-16T03:54:01;72.77;;;3.10;;
5955;SDS011;3004;48.080;11.600;2023-07-16T03:57:01;72.80;;;3.10;;
5955;SDS011;3004;48.080;11.600;2023-07-16T03:59:40;73.63;;;3.40;;
5955;SDS011;3004;48.080;11.600;2023-07-16T04:02:08;72.70;;;3.07;;
5955;SDS011;3004;48.080;11.600;2023-07-16T04:04:37;73.20;;;3.40;;
5955;SDS011;3004;48.080;11.600;2023-07-16T04:07:35;72.60;;;3.00;;
5955;SDS011;3004;48.080;11.600;2023-07-16T04:10:10;72.70;;;3.30;;
5955;SDS011;3004;48.080;11.600;2023-07-16T04:12:38;72.70;;;3.10;;
5955;SDS011;3004;48.080;11.600;2023-07-16T04:15:06;77.00;;;4.23;;
5955;SDS011;3004;48.080;11.600;2023-07-16T04:17:35;75.50;;;3.93;;
5955;SDS011;3004;48.080;11.600;2023-07-16T04:20:10;74.10;;;3.47;;
5955;SDS011;3004;48.080;11.600;2023-07-16T07:48:07;77.17;;;6.13;;
5955;SDS011;3004;48.080;11.600;2023-07-16T07:50:34;76.90;;;6.03;;
5955;SDS011;3004;48.080;11.600;2023-07-16T07:53:16;76.90;;;6.20;;
5955;SDS011;3004;48.080;11.600;2023-07-16T07:56:00;76.97;;;6.10;;
5955;SDS011;3004;48.080;11.600;2023-07-16T08:12:11;77.10;;;6.00;;
5955;SDS011;3004;48.080;11.600;2023-07-16T08:14:39;77.67;;;6.80;;
5955;SDS011;3004;48.080;11.600;2023-07-16T08:17:07;77.30;;;5.93;;
5955;SDS011;3004;48.080;11.600;2023-07-16T08:19:38;77.40;;;5.93;;
5955;SDS011;3004;48.080;11.600;2023-07-16T08:22:05;77.60;;;6.00;;
5955;SDS011;3004;48.080;11.600;2023-07-16T08:24:37;77.10;;;5.97;;
5955;SDS011;3004;48.080;11.600;2023-07-16T08:27:21;78.17;;;5.90;;
5955;SDS011;3004;48.080;11.600;2023-07-16T08:29:51;78.10;;;5.83;;
5955;SDS011;3004;48.080;11.600;2023-07-16T08:32:26;77.67;;;5.97;;
5955;SDS011;3004;48.080;11.600;2023-07-16T08:35:01;77.40;;;6.00;;
5955;SDS011;3004;48.080;11.600;2023-07-16T08:37:42;77.90;;;5.90;;
5955;SDS011;3004;48.080;11.600;2023-07-16T08:40:12;78.47;;;5.90;;
5955;SDS011;3004;48.080;11.600;2023-07-16T09:16:47;77.40;;;4.90;;
5955;SDS011;3004;48.080;11.600;2023-07-16T09:19:21;77.30;;;4.67;;
5955;SDS011;3004;48.080;11.600;2023-07-16T09:22:04;73.70;;;3.80;;
5955;SDS011;3004;48.080;11.600;2023-07-16T09:24:59;73.33;;;3.70;;
5955;SDS011;3004;48.080;11.600;2023-07-16T09:27:30;76.37;;;4.50;;
5955;SDS011;3004;48.080;11.600;2023-07-16T09:30:14;77.03;;;4.50;;
5955;SDS011;3004;48.080;11.600;2023-07-16T10:25:23;67.60;;;2.10;;
5955;SDS011;3004;48.080;11.600;2023-07-16T10:33:30;68.03;;;2.53;;
